Time;durP1;ratioP1;P1;durP2;ratioP2;P2;SDS_P1;SDS_P2;PMS_P1;PMS_P2;Temp;Humidity;BMP_temperature;BMP_pressure;BME280_temperature;BME280_humidity;BME280_pressure;Samples;Min_cycle;Max_cycle;Signal;HPM_P1;HPM_P2
2021/04/04 00:00:22;;;;;;;19.15;4.10;;;;;;;5.35;63.04;102719.41;5289004;28;20032;-73
2021/04/04 00:02:53;;;;;;;20.17;4.40;;;;;;;5.37;62.31;102725.41;5287905;28;20028;-73
2021/04/04 00:05:24;;;;;;;14.90;3.67;;;;;;;5.37;62.79;102722.78;5287827;28;20090;-73
2021/04/04 00:07:56;;;;;;;18.45;3.63;;;;;;;5.38;62.60;102716.72;5286437;28;20107;-73
2021/04/04 00:10:27;;;;;;;12.38;3.80;;;;;;;5.39;63.02;102709.78;5291510;28;20024;-73
2021/04/04 00:12:58;;;;;;;16.15;3.75;;;;;;;5.46;63.61;102703.47;5290577;28;20085;-73
2021/04/04 00:15:30;;;;;;;18.65;3.97;;;;;;;5.43;62.62;102711.38;5288772;28;20034;-73
2021/04/04 00:18:02;;;;;;;18.33;4.05;;;;;;;5.46;63.67;102711.25;5287916;28;20082;-73
2021/04/04 00:20:33;;;;;;;20.27;4.22;;;;;;;5.45;62.82;102713.00;5289988;28;20055;-73
2021/04/04 00:23:05;;;;;;;13.68;3.55;;;;;;;5.43;63.43;102708.75;5287479;28;20024;-74
2021/04/04 00:25:36;;;;;;;18.25;4.07;;;;;;;5.42;63.55;102709.63;5289701;28;20033;-73
2021/04/04 00:28:07;;;;;;;20.70;3.65;;;;;;;5.41;63.36;102694.94;5288180;28;20040;-73
2021/04/04 00:30:39;;;;;;;16.88;4.07;;;;;;;5.41;62.47;102706.19;5291709;28;20063;-73
2021/04/04 00:33:10;;;;;;;25.35;4.30;;;;;;;5.45;63.50;102696.53;5288276;28;20052;-73
2021/04/04 00:35:42;;;;;;;15.38;3.13;;;;;;;5.46;63.16;102698.28;5283886;28;20032;-73
2021/04/04 00:38:14;;;;;;;23.05;4.22;;;;;;;5.46;62.75;102699.13;5289065;28;20036;-73
2021/04/04 00:40:45;;;;;;;17.90;4.00;;;;;;;5.45;62.90;102694.78;5290609;28;20032;-73
2021/04/04 00:43:16;;;;;;;23.15;4.47;;;;;;;5.46;63.30;102691.31;5283100;28;20045;-73
2021/04/04 00:45:48;;;;;;;26.30;5.68;;;;;;;5.44;62.98;102692.25;5289063;28;20470;-73
2021/04/04 00:48:19;;;;;;;19.27;4.32;;;;;;;5.45;63.62;102696.53;5287591;28;20036;-73
2021/04/04 00:50:50;;;;;;;19.80;4.30;;;;;;;5.45;62.89;102700.00;5285895;28;20099;-74
2021/04/04 00:53:21;;;;;;;21.55;5.70;;;;;;;5.47;63.96;102695.59;5289417;28;20046;-73
2021/04/04 00:55:53;;;;;;;19.20;4.00;;;;;;;5.42;63.04;102697.53;5288379;28;20024;-73
2021/04/04 00:58:25;;;;;;;22.55;4.43;;;;;;;5.39;63.88;102689.81;5287911;28;20032;-73
2021/04/04 01:00:58;;;;;;;17.27;4.10;;;;;;;5.39;62.87;102695.03;5287884;28;20030;-73
2021/04/04 01:03:29;;;;;;;21.65;4.43;;;;;;;5.37;63.10;102700.25;5266791;28;20139;-73
2021/04/04 01:06:03;;;;;;;16.05;4.22;;;;;;;5.34;64.31;102695.19;5271542;28;20508;-73
2021/04/04 01:08:36;;;;;;;19.88;4.22;;;;;;;5.37;62.94;102702.84;5285547;28;20091;-74
2021/04/04 01:11:08;;;;;;;15.45;3.47;;;;;;;5.40;63.25;102703.66;5267361;28;20055;-73
2021/04/04 01:13:43;;;;;;;16.03;4.50;;;;;;;5.44;62.98;102697.47;5291025;28;20031;-73
2021/04/04 01:16:21;;;;;;;18.75;3.95;;;;;;;5.41;63.08;102693.19;5286448;28;20118;-73
2021/04/04 01:19:29;;;;;;;18.90;4.32;;;;;;;5.50;62.77;102705.91;5286222;28;20090;-73
2021/04/04 01:22:26;;;;;;;17.85;3.30;;;;;;;5.48;64.72;102697.28;5287924;28;20056;-73
2021/04/04 01:25:07;;;;;;;21.88;3.83;;;;;;;5.47;63.40;102698.19;5286344;28;21402;-73
2021/04/04 01:27:49;;;;;;;15.18;3.63;;;;;;;5.50;63.15;102703.31;5286721;28;20032;-73
2021/04/04 01:30:24;;;;;;;14.05;3.80;;;;;;;5.43;63.99;102693.16;5288330;28;20036;-73
2021/04/04 01:32:57;;;;;;;15.38;3.67;;;;;;;5.44;63.27;102694.84;5288349;28;20123;-74
2021/04/04 01:35:31;;;;;;;17.20;3.85;;;;;;;5.42;63.42;102697.53;5286223;28;20107;-73
2021/04/04 01:38:10;;;;;;;17.67;3.80;;;;;;;5.45;63.77;102692.19;5285085;28;20063;-73
2021/04/04 01:40:45;;;;;;;18.98;3.78;;;;;;;5.41;63.09;102685.41;5285200;28;20089;-73
2021/04/04 01:43:17;;;;;;;18.70;3.88;;;;;;;5.49;64.70;102688.63;5284120;28;20042;-73
2021/04/04 01:45:51;;;;;;;13.93;3.53;;;;;;;5.44;63.36;102682.72;5284284;28;20112;-73
2021/04/04 01:48:22;;;;;;;25.23;3.88;;;;;;;5.44;63.70;102689.66;5288515;28;20054;-73
2021/04/04 01:50:54;;;;;;;18.83;3.60;;;;;;;5.35;63.40;102670.03;5285154;28;20028;-73
2021/04/04 01:53:26;;;;;;;20.25;4.22;;;;;;;5.50;64.87;102677.31;5269198;28;20024;-74
2021/04/04 01:55:58;;;;;;;17.92;4.20;;;;;;;5.48;64.19;102670.47;5282334;28;20024;-73
2021/04/04 01:58:32;;;;;;;19.73;4.27;;;;;;;5.47;63.45;102669.59;5286987;28;20036;-73
2021/04/04 02:01:05;;;;;;;19.95;4.18;;;;;;;5.47;63.40;102682.59;5285940;28;20024;-73
2021/04/04 02:03:36;;;;;;;;;;;;;;;5.67;62.15;102673.28;5285871;28;20401;-73
2021/04/04 02:06:11;;;;;;;15.27;3.20;;;;;;;5.51;63.44;102672.97;5283927;28;19908;-73
2021/04/04 02:08:43;;;;;;;18.17;4.65;;;;;;;5.36;63.89;102661.31;5286175;28;20038;-73
2021/04/04 02:11:19;;;;;;;18.13;3.47;;;;;;;5.48;64.18;102670.47;5282812;28;20028;-73
2021/04/04 02:13:50;;;;;;;13.18;3.50;;;;;;;5.43;64.40;102668.03;5285590;28;20402;-73
2021/04/04 02:16:23;;;;;;;14.10;4.28;;;;;;;5.42;64.00;102661.13;5286256;28;20597;-73
2021/04/04 02:18:54;;;;;;;18.75;4.90;;;;;;;5.45;63.78;102661.00;5285976;28;20055;-73
2021/04/04 02:21:28;;;;;;;17.17;4.63;;;;;;;5.53;65.11;102664.22;5284334;28;20055;-73
2021/04/04 02:24:03;;;;;;;16.52;3.60;;;;;;;5.51;64.98;102657.34;5286949;28;20231;-73
2021/04/04 02:26:35;;;;;;;19.98;4.25;;;;;;;5.51;64.11;102650.41;5278868;28;20075;-73
2021/04/04 02:29:07;;;;;;;14.27;3.90;;;;;;;5.49;64.67;102652.22;5279622;28;20640;-73
2021/04/04 02:31:46;;;;;;;18.30;4.25;;;;;;;5.49;64.39;102652.22;5283581;28;20258;-73
2021/04/04 02:34:21;;;;;;;14.75;4.10;;;;;;;5.48;64.52;102654.84;5280529;28;20051;-73
2021/04/04 02:36:53;;;;;;;13.80;3.95;;;;;;;5.50;64.79;102648.72;5264224;28;20075;-73
2021/04/04 02:39:32;;;;;;;18.00;3.72;;;;;;;5.51;64.49;102653.00;5282511;28;20339;-73
2021/04/04 02:42:05;;;;;;;17.77;4.05;;;;;;;5.49;64.40;102652.22;5288308;28;20030;-73
2021/04/04 02:44:37;;;;;;;24.13;4.50;;;;;;;5.50;64.42;102642.66;5284589;28;20462;-73
2021/04/04 02:47:12;;;;;;;20.38;4.47;;;;;;;5.55;64.70;102649.41;5286282;28;20028;-73
2021/04/04 02:49:47;;;;;;;20.58;4.82;;;;;;;5.49;65.45;102649.63;5286833;28;20028;-73
2021/04/04 02:52:21;;;;;;;17.98;5.30;;;;;;;5.47;64.72;102643.63;5284284;28;20137;-73
2021/04/04 02:54:55;;;;;;;18.35;4.70;;;;;;;5.47;64.91;102637.56;5284712;28;20099;-73
2021/04/04 02:57:30;;;;;;;17.50;3.75;;;;;;;5.56;65.30;102643.28;5283461;28;20028;-73
2021/04/04 03:00:06;;;;;;;21.00;4.50;;;;;;;5.59;65.39;102645.78;5285966;28;20170;-73
2021/04/04 03:02:38;;;;;;;18.85;4.22;;;;;;;5.57;64.76;102645.00;5283368;28;20025;-73
2021/04/04 03:05:10;;;;;;;18.25;3.92;;;;;;;5.51;64.49;102639.16;5284587;28;20529;-74
2021/04/04 03:07:44;;;;;;;19.80;4.28;;;;;;;5.51;65.37;102646.97;5277383;28;20025;-73
2021/04/04 03:10:15;;;;;;;15.82;4.07;;;;;;;5.52;65.72;102638.25;5288744;28;20031;-73
2021/04/04 03:12:50;;;;;;;16.83;3.60;;;;;;;5.54;65.32;102634.69;5271497;28;20036;-73
2021/04/04 03:15:22;;;;;;;11.40;3.53;;;;;;;5.51;64.81;102637.41;5271595;28;20024;-73
2021/04/04 03:17:55;;;;;;;20.38;3.92;;;;;;;5.50;65.11;102640.91;5288530;28;20035;-73
2021/04/04 03:20:27;;;;;;;17.98;3.72;;;;;;;5.55;65.69;102636.41;5288549;28;20028;-73
2021/04/04 03:22:59;;;;;;;15.75;3.78;;;;;;;5.58;65.97;102635.44;5269363;28;20019;-73
2021/04/04 03:25:31;;;;;;;21.60;4.18;;;;;;;5.57;65.74;102633.75;5286828;28;20032;-73
2021/04/04 03:28:03;;;;;;;15.35;3.85;;;;;;;5.59;66.01;102632.78;5269964;28;20028;-73
2021/04/04 03:30:35;;;;;;;12.73;4.05;;;;;;;5.49;65.12;102636.63;5288898;28;20029;-73
2021/04/04 03:33:08;;;;;;;19.65;4.28;;;;;;;5.52;64.77;102623.50;5289017;28;20044;-73
2021/04/04 03:35:40;;;;;;;19.83;4.53;;;;;;;5.50;65.94;102630.50;5286905;28;20048;-73
2021/04/04 03:38:14;;;;;;;16.63;3.67;;;;;;;5.60;66.62;102626.66;5291008;28;20123;-73
2021/04/04 03:40:46;;;;;;;18.20;4.18;;;;;;;5.62;65.22;102626.63;5288020;28;20031;-73
2021/04/04 03:43:24;;;;;;;16.17;4.25;;;;;;;5.61;65.36;102619.75;5288850;28;20499;-73
2021/04/04 03:46:05;;;;;;;16.13;4.38;;;;;;;5.57;65.26;102606.00;5286709;28;20024;-73
2021/04/04 03:48:39;;;;;;;19.02;4.78;;;;;;;5.54;65.81;102600.91;5289293;28;20020;-73
2021/04/04 03:51:11;;;;;;;15.20;4.20;;;;;;;5.55;64.79;102610.41;5284466;28;20094;-73
2021/04/04 03:53:45;;;;;;;20.63;3.83;;;;;;;5.71;65.39;102612.44;5289366;28;20051;-73
2021/04/04 03:56:23;;;;;;;14.68;4.30;;;;;;;5.68;65.58;102613.41;5289826;28;20025;-73
2021/04/04 03:58:57;;;;;;;17.00;4.05;;;;;;;5.73;65.88;102614.09;5287942;28;20036;-73
2021/04/04 04:01:30;;;;;;;13.25;3.60;;;;;;;5.66;65.03;102599.63;5279696;28;20105;-73
2021/04/04 04:04:04;;;;;;;15.57;3.65;;;;;;;5.67;65.13;102613.47;5284225;28;20029;-73
2021/04/04 04:06:40;;;;;;;20.08;5.15;;;;;;;5.73;66.20;102613.25;5285039;28;20028;-73
2021/04/04 04:09:13;;;;;;;17.75;4.38;;;;;;;5.63;65.52;102607.53;5269802;28;20028;-73
2021/04/04 04:11:48;;;;;;;;;;;;;;;5.90;65.21;102610.88;5285398;28;20564;-74
2021/04/04 04:14:22;;;;;;;17.17;3.70;;;;;;;5.67;64.47;102605.66;5290170;28;19943;-73
2021/04/04 04:16:54;;;;;;;15.63;3.72;;;;;;;5.61;64.90;102602.38;5289293;28;20028;-73
2021/04/04 04:19:25;;;;;;;18.42;4.07;;;;;;;5.63;65.85;102604.06;5287336;28;20031;-73
2021/04/04 04:21:57;;;;;;;15.15;3.40;;;;;;;5.64;65.64;102597.97;5286337;28;20031;-73
2021/04/04 04:24:29;;;;;;;20.77;4.32;;;;;;;5.61;65.67;102599.78;5288924;28;20035;-73
2021/04/04 04:27:01;;;;;;;21.20;4.00;;;;;;;5.67;66.14;102601.31;5289031;28;20032;-74
2021/04/04 04:29:34;;;;;;;11.73;3.20;;;;;;;5.65;65.97;102600.53;5285725;28;20032;-73
2021/04/04 04:32:06;;;;;;;11.40;3.58;;;;;;;5.69;65.32;102596.06;5285990;28;20065;-73
2021/04/04 04:34:41;;;;;;;15.52;3.88;;;;;;;5.74;65.30;102601.94;5311504;23;20064;-70
2021/04/04 04:37:13;;;;;;;14.18;4.05;;;;;;;5.63;65.52;102601.47;5260816;28;20033;-70
2021/04/04 04:39:45;;;;;;;17.50;4.20;;;;;;;5.70;66.28;102593.41;5250112;28;20033;-70
2021/04/04 04:42:18;;;;;;;15.70;3.28;;;;;;;5.63;65.84;102596.28;5267198;28;20040;-70
2021/04/04 04:44:50;;;;;;;14.43;3.90;;;;;;;5.63;66.14;102599.72;5283682;28;20032;-70
2021/04/04 04:47:22;;;;;;;16.27;3.60;;;;;;;5.70;66.54;102592.56;5287408;28;20111;-70
2021/04/04 04:49:55;;;;;;;21.33;4.15;;;;;;;5.65;66.16;102594.50;5288717;28;20372;-70
2021/04/04 04:52:26;;;;;;;14.43;4.55;;;;;;;5.70;66.75;102596.00;5286605;28;20696;-70
2021/04/04 04:54:57;;;;;;;12.85;3.50;;;;;;;5.63;66.52;102593.69;5287533;28;20028;-70
2021/04/04 04:57:29;;;;;;;16.92;4.10;;;;;;;5.63;66.08;102593.69;5288685;28;20028;-70
2021/04/04 05:00:04;;;;;;;17.40;3.92;;;;;;;5.57;66.13;102593.00;5285694;28;20032;-70
2021/04/04 05:02:36;;;;;;;19.13;4.22;;;;;;;5.57;66.53;102587.81;5270136;28;20071;-69
2021/04/04 05:05:10;;;;;;;11.95;3.78;;;;;;;5.66;66.91;102598.78;5288860;28;20067;-70
2021/04/04 05:07:44;;;;;;;16.15;3.88;;;;;;;5.56;66.75;102595.63;5288625;28;20024;-70
2021/04/04 05:10:16;;;;;;;19.00;3.95;;;;;;;5.55;67.04;102594.78;5285781;28;20028;-70
2021/04/04 05:13:08;;;;;;;18.58;4.82;;;;;;;5.66;67.27;102599.63;5289477;28;20050;-70
2021/04/04 05:15:41;;;;;;;16.35;3.90;;;;;;;5.54;67.74;102600.06;5287773;28;20040;-70
2021/04/04 05:18:12;;;;;;;17.33;4.10;;;;;;;5.63;68.18;102606.69;5286776;28;20098;-70
2021/04/04 05:20:45;;;;;;;23.75;4.38;;;;;;;5.57;67.66;102597.34;5282138;28;20032;-70
2021/04/04 05:23:21;;;;;;;15.02;3.50;;;;;;;5.58;67.91;102596.44;5288421;28;20024;-70
2021/04/04 05:25:53;;;;;;;17.08;4.50;;;;;;;5.57;67.58;102586.97;5286054;28;20548;-70
2021/04/04 05:28:25;;;;;;;18.45;4.38;;;;;;;5.57;68.08;102594.75;5286999;28;20025;-70
2021/04/04 05:31:01;;;;;;;15.60;3.72;;;;;;;5.55;67.48;102587.00;5287208;28;20070;-70
2021/04/04 05:33:32;;;;;;;16.38;4.95;;;;;;;5.51;68.82;102587.16;5294229;28;20401;-70
2021/04/04 05:36:04;;;;;;;21.88;4.30;;;;;;;5.56;68.08;102596.50;5308865;28;20089;-70
2021/04/04 05:38:35;;;;;;;15.70;3.55;;;;;;;5.58;68.74;102593.84;5306910;28;20685;-71
2021/04/04 05:41:07;;;;;;;16.75;4.38;;;;;;;5.54;68.28;102594.88;5307425;28;20027;-70
2021/04/04 05:43:41;;;;;;;15.70;3.78;;;;;;;5.55;68.67;102592.19;5309026;28;20047;-70
2021/04/04 05:46:36;;;;;;;11.18;3.20;;;;;;;5.61;67.96;102586.78;5296776;28;20445;-71
2021/04/04 05:49:22;;;;;;;15.05;3.92;;;;;;;5.53;68.28;102586.22;5306365;28;20102;-70
2021/04/04 05:51:58;;;;;;;14.13;3.60;;;;;;;5.55;68.65;102594.78;5308479;28;20110;-70
2021/04/04 05:54:49;;;;;;;12.13;3.83;;;;;;;5.65;67.94;102597.94;5307694;28;20085;-70
2021/04/04 05:57:28;;;;;;;11.98;3.30;;;;;;;5.57;68.83;102593.00;5308030;28;20176;-71
2021/04/04 06:00:10;;;;;;;14.18;3.75;;;;;;;5.59;68.29;102598.13;5309249;28;20676;-70
2021/04/04 06:03:12;;;;;;;15.60;3.65;;;;;;;5.60;68.06;102589.44;5298025;28;20028;-70
2021/04/04 06:06:31;;;;;;;14.30;3.33;;;;;;;5.64;67.83;102585.81;5306616;28;20032;-70
2021/04/04 06:09:30;;;;;;;15.80;3.88;;;;;;;5.65;67.84;102592.72;5296988;28;20047;-70
2021/04/04 06:12:09;;;;;;;12.15;3.33;;;;;;;5.60;68.01;102585.06;5290388;28;20035;-71
2021/04/04 06:15:05;;;;;;;11.27;3.35;;;;;;;5.66;67.24;102586.63;5305829;28;20118;-70
2021/04/04 06:18:18;;;;;;;15.10;4.10;;;;;;;5.70;67.38;102584.75;5306679;28;20110;-70
2021/04/04 06:21:12;;;;;;;14.45;3.38;;;;;;;5.63;67.15;102570.28;5304548;28;20159;-70
2021/04/04 06:23:51;;;;;;;;;;;;;;;5.86;66.39;102591.09;5307391;28;20088;-71
2021/04/04 06:26:32;;;;;;;13.98;3.22;;;;;;;5.65;66.29;102589.28;5304465;28;20014;-70
2021/04/04 06:29:11;;;;;;;11.02;3.38;;;;;;;5.65;67.09;102578.88;5305447;28;20024;-70
2021/04/04 06:32:11;;;;;;;10.07;2.90;;;;;;;5.71;66.33;102578.66;5306568;28;20487;-70
2021/04/04 06:34:54;;;;;;;13.93;3.20;;;;;;;5.66;64.78;102586.63;5301276;28;20040;-70
2021/04/04 06:37:25;;;;;;;11.70;3.17;;;;;;;5.65;65.12;102592.72;5305855;28;20551;-70
2021/04/04 06:40:06;;;;;;;15.40;3.60;;;;;;;5.70;66.56;102593.41;5304904;28;20054;-70
2021/04/04 06:43:00;;;;;;;12.15;3.00;;;;;;;5.71;66.37;102595.09;5305243;28;20285;-70
2021/04/04 06:45:50;;;;;;;;;;;;;;;5.88;65.12;102604.88;5306213;28;20213;-70
2021/04/04 06:48:45;;;;;;;15.35;3.42;;;;;;;5.76;65.35;102603.59;5305882;28;19915;-70
2021/04/04 06:51:54;;;;;;;15.20;3.55;;;;;;;5.76;66.20;102597.53;5288603;28;20028;-70
2021/04/04 06:54:56;;;;;;;10.93;3.50;;;;;;;5.77;65.82;102601.84;5306032;28;20047;-70
2021/04/04 06:57:47;;;;;;;13.00;3.45;;;;;;;5.76;66.13;102600.16;5304228;28;20052;-70
2021/04/04 07:00:32;;;;;;;11.98;3.30;;;;;;;5.72;65.79;102595.94;5306092;28;20547;-70
2021/04/04 07:03:08;;;;;;;13.88;3.42;;;;;;;5.72;65.20;102589.00;5306001;28;20434;-70
2021/04/04 07:06:19;;;;;;;13.82;3.38;;;;;;;5.83;65.69;102593.78;5305184;28;20062;-70
2021/04/04 07:09:18;;;;;;;13.15;3.78;;;;;;;5.84;66.16;102595.50;5280784;28;20039;-71
2021/04/04 07:12:21;;;;;;;19.27;3.90;;;;;;;5.84;66.33;102588.53;5302795;28;20028;-70
2021/04/04 07:15:09;;;;;;;14.80;3.70;;;;;;;5.86;64.63;102589.31;5305887;28;20545;-70
2021/04/04 07:17:52;;;;;;;13.73;4.05;;;;;;;5.86;65.39;102589.31;5303363;28;20484;-70
2021/04/04 07:20:37;;;;;;;11.02;3.53;;;;;;;5.94;65.87;102586.47;5306271;28;20467;-69
2021/04/04 07:23:37;;;;;;;12.60;3.42;;;;;;;5.95;65.63;102587.34;5306767;28;20051;-70
2021/04/04 07:26:30;;;;;;;16.85;3.38;;;;;;;6.03;64.84;102585.31;5307706;28;20047;-70
2021/04/04 07:29:21;;;;;;;18.33;4.47;;;;;;;6.01;65.17;102582.72;5304381;28;20031;-70
2021/04/04 07:32:07;;;;;;;15.52;4.45;;;;;;;6.03;64.97;102586.13;5307091;28;20088;-70
2021/04/04 07:34:45;;;;;;;12.52;4.20;;;;;;;6.02;65.49;102581.84;5305394;28;20048;-69
2021/04/04 07:37:33;;;;;;;15.02;4.75;;;;;;;6.07;64.41;102584.28;5306302;28;20496;-71
2021/04/04 07:40:42;;;;;;;10.82;4.07;;;;;;;6.14;64.14;102582.25;5297673;28;20031;-70
2021/04/04 07:43:36;;;;;;;13.95;4.65;;;;;;;6.07;63.85;102581.66;5251311;28;20134;-70
2021/04/04 07:46:12;;;;;;;;;;;;;;;6.26;63.29;102581.81;5304647;28;20040;-70
2021/04/04 07:49:06;;;;;;;12.90;4.20;;;;;;;6.00;62.84;102570.63;5303265;28;19915;-70
2021/04/04 07:51:39;;;;;;;13.60;4.95;;;;;;;6.10;63.36;102584.16;5303929;28;20032;-70
2021/04/04 07:54:35;;;;;;;18.95;4.55;;;;;;;6.15;62.89;102583.97;5289155;28;20114;-70
2021/04/04 07:57:20;;;;;;;14.80;4.05;;;;;;;6.17;63.51;102577.78;5310153;28;20102;-70
2021/04/04 07:59:57;;;;;;;14.50;4.30;;;;;;;6.16;63.65;102586.50;5292997;28;20485;-70
2021/04/04 08:02:38;;;;;;;10.93;4.55;;;;;;;6.16;62.72;102577.84;5308128;28;20475;-70
2021/04/04 08:05:15;;;;;;;15.85;4.55;;;;;;;6.19;63.73;102591.59;5308933;28;20075;-70
2021/04/04 08:07:56;;;;;;;13.98;4.80;;;;;;;6.17;62.46;102579.53;5304135;28;20020;-70
2021/04/04 08:10:36;;;;;;;12.80;4.93;;;;;;;6.19;62.68;102585.56;5307061;28;20023;-70
2021/04/04 08:13:27;;;;;;;11.02;4.53;;;;;;;6.21;62.88;102583.72;5305425;28;20076;-71
2021/04/04 08:16:10;;;;;;;13.13;4.63;;;;;;;6.25;62.05;102587.91;5305941;28;20055;-70
2021/04/04 08:18:41;;;;;;;16.73;4.47;;;;;;;6.23;61.99;102580.16;5307370;28;20024;-70
2021/04/04 08:21:20;;;;;;;12.13;4.03;;;;;;;6.30;61.33;102588.59;5305582;28;20049;-70
2021/04/04 08:24:05;;;;;;;12.40;4.28;;;;;;;6.32;61.53;102591.97;5302649;28;20028;-70
2021/04/04 08:27:05;;;;;;;13.05;4.10;;;;;;;6.34;61.04;102590.16;5305017;28;20436;-70
2021/04/04 08:29:43;;;;;;;10.38;4.28;;;;;;;6.30;61.54;102586.84;5307075;28;20048;-70
2021/04/04 08:32:24;;;;;;;10.65;4.75;;;;;;;6.36;61.54;102582.28;5299370;28;20024;-70
2021/04/04 08:34:59;;;;;;;17.50;4.53;;;;;;;6.45;60.71;102587.16;5304893;28;20056;-70
2021/04/04 08:37:37;;;;;;;15.25;4.82;;;;;;;6.40;61.18;102569.09;5295289;28;20118;-70
2021/04/04 08:40:14;;;;;;;12.95;4.55;;;;;;;6.47;61.72;102577.50;5306401;28;20063;-71
2021/04/04 08:42:48;;;;;;;10.63;4.35;;;;;;;6.56;61.92;102584.97;5304508;28;20531;-70
2021/04/04 08:45:27;;;;;;;12.43;4.82;;;;;;;6.56;60.95;102578.00;5307823;28;20479;-70
2021/04/04 08:47:59;;;;;;;13.30;5.95;;;;;;;6.61;61.52;102583.00;5304242;28;20046;-71
2021/04/04 08:50:33;;;;;;;13.45;4.55;;;;;;;6.63;61.08;102591.63;5306017;28;20038;-71
2021/04/04 08:53:37;;;;;;;14.57;5.07;;;;;;;6.65;59.92;102583.75;5306902;28;20095;-70
2021/04/04 08:56:09;;;;;;;15.57;4.90;;;;;;;6.63;60.13;102591.63;5307472;28;20034;-71
2021/04/04 08:58:48;;;;;;;11.90;4.27;;;;;;;6.71;60.30;102583.50;5308143;28;20096;-70
2021/04/04 09:01:25;;;;;;;12.32;4.32;;;;;;;6.73;60.26;102582.50;5308402;28;20357;-70
2021/04/04 09:03:59;;;;;;;11.32;4.05;;;;;;;6.80;60.35;102583.13;5308456;28;20024;-70
2021/04/04 09:06:39;;;;;;;11.48;3.60;;;;;;;6.78;59.80;102584.91;5310275;28;20046;-70
2021/04/04 09:09:20;;;;;;;13.32;3.33;;;;;;;6.75;60.30;102587.66;5295696;28;20361;-70
2021/04/04 09:11:54;;;;;;;16.13;4.43;;;;;;;6.68;59.28;102583.63;5305321;28;20054;-70
2021/04/04 09:14:26;;;;;;;11.40;3.90;;;;;;;6.66;59.03;102585.44;5288942;28;20046;-70
2021/04/04 09:17:00;;;;;;;15.98;3.80;;;;;;;6.81;59.68;102582.19;5307176;28;20040;-70
2021/04/04 09:19:39;;;;;;;11.15;3.65;;;;;;;6.84;60.41;102582.06;5306742;28;20023;-70
2021/04/04 09:22:20;;;;;;;10.52;3.53;;;;;;;6.93;60.50;102578.22;5305833;28;20119;-70
2021/04/04 09:24:56;;;;;;;11.07;4.05;;;;;;;6.92;58.99;102577.38;5307053;28;20482;-70
2021/04/04 09:27:33;;;;;;;12.90;3.85;;;;;;;6.96;59.96;102573.75;5307023;28;20464;-70
2021/04/04 09:30:23;;;;;;;18.02;4.45;;;;;;;6.98;59.36;102577.16;5307463;28;20520;-70
2021/04/04 09:32:59;;;;;;;11.18;3.83;;;;;;;6.94;58.68;102551.28;5307666;28;20031;-70
2021/04/04 09:35:31;;;;;;;12.82;4.50;;;;;;;6.98;58.82;102561.50;5302367;28;20067;-70
2021/04/04 09:38:05;;;;;;;14.93;3.72;;;;;;;6.99;58.18;102557.97;5301643;28;20503;-70
2021/04/04 09:40:39;;;;;;;16.20;3.97;;;;;;;6.99;59.27;102557.97;5296459;28;20049;-70
2021/04/04 09:43:13;;;;;;;15.10;4.15;;;;;;;7.06;59.14;102542.94;5305999;28;20623;-70
2021/04/04 09:45:44;;;;;;;11.90;4.15;;;;;;;7.15;58.95;102546.91;5304827;28;20077;-70
2021/04/04 09:48:26;;;;;;;12.00;4.38;;;;;;;7.22;58.27;102561.38;5288434;28;20469;-70
2021/04/04 09:51:16;;;;;;;11.88;4.47;;;;;;;7.31;58.99;102550.53;5305112;28;20031;-70
2021/04/04 09:53:49;;;;;;;14.75;4.30;;;;;;;7.37;58.00;102557.25;5304027;28;20023;-70
2021/04/04 09:56:29;;;;;;;11.43;4.43;;;;;;;7.41;58.70;102548.38;5306758;28;20224;-70
2021/04/04 09:59:01;;;;;;;10.55;4.25;;;;;;;7.32;57.34;102558.31;5307225;28;20046;-70
2021/04/04 10:01:42;;;;;;;10.82;5.05;;;;;;;7.45;58.21;102553.38;5304528;28;20381;-70
2021/04/04 10:04:13;;;;;;;11.23;4.22;;;;;;;7.51;57.59;102552.28;5304375;28;20044;-70
2021/04/04 10:06:58;;;;;;;11.50;4.80;;;;;;;7.57;58.55;102550.22;5304551;28;20569;-70
2021/04/04 10:09:39;;;;;;;13.65;5.55;;;;;;;7.65;58.15;102547.28;5298789;28;20060;-70
2021/04/04 10:12:11;;;;;;;15.45;4.95;;;;;;;7.56;57.81;102543.31;5306153;28;20027;-70
2021/04/04 10:14:59;;;;;;;8.82;4.25;;;;;;;7.65;57.56;102542.09;5305258;28;20034;-70
2021/04/04 10:17:31;;;;;;;13.32;5.35;;;;;;;7.51;57.81;102542.69;5303481;28;20107;-70
2021/04/04 10:20:05;;;;;;;15.02;5.35;;;;;;;7.52;57.20;102536.56;5303238;28;20039;-70
2021/04/04 10:22:49;;;;;;;16.55;5.82;;;;;;;7.62;58.30;102538.75;5304877;28;20107;-70
2021/04/04 10:25:21;;;;;;;8.95;4.88;;;;;;;7.60;57.31;102540.56;5300645;28;20082;-70
2021/04/04 10:28:06;;;;;;;15.15;6.13;;;;;;;7.63;57.97;102540.44;5301717;28;20103;-70
2021/04/04 10:30:38;;;;;;;11.85;5.43;;;;;;;7.51;57.22;102526.19;5305246;28;20027;-69
2021/04/04 10:33:26;;;;;;;10.38;5.82;;;;;;;7.73;57.49;102529.53;5306759;22;21001;-72
2021/04/04 10:36:09;;;;;;;9.82;5.32;;;;;;;7.76;57.53;102516.31;5234008;28;20048;-72
2021/04/04 10:38:41;;;;;;;13.77;6.63;;;;;;;7.90;57.51;102514.84;5258104;28;20080;-72
2021/04/04 10:41:27;;;;;;;9.82;5.05;;;;;;;7.92;57.53;102513.88;5259644;28;20184;-72
2021/04/04 10:43:59;;;;;;;16.83;5.72;;;;;;;7.76;56.45;102512.88;5275029;28;20039;-73
2021/04/04 10:46:34;;;;;;;16.15;5.70;;;;;;;7.79;56.42;102507.50;5283253;28;20183;-72
2021/04/04 10:49:06;;;;;;;12.52;5.70;;;;;;;7.70;56.73;102500.13;5263682;28;20070;-73
2021/04/04 10:51:37;;;;;;;13.85;6.03;;;;;;;7.75;57.44;102491.16;5284593;28;20029;-73
2021/04/04 10:54:09;;;;;;;13.15;5.70;;;;;;;7.87;56.97;102481.06;5285704;28;20039;-72
2021/04/04 10:56:42;;;;;;;11.48;5.80;;;;;;;7.87;55.76;102478.44;5285046;28;20095;-72
2021/04/04 10:59:14;;;;;;;11.98;6.00;;;;;;;8.05;57.23;102483.63;5281636;28;20480;-72
2021/04/04 11:01:46;;;;;;;19.52;5.90;;;;;;;8.01;56.14;102486.47;5278663;28;20087;-72
2021/04/04 11:04:17;;;;;;;10.23;5.50;;;;;;;8.12;56.34;102485.97;5282028;28;20174;-73
2021/04/04 11:06:49;;;;;;;14.90;6.57;;;;;;;8.01;55.72;102471.66;5283387;28;20043;-73
2021/04/04 11:09:21;;;;;;;15.60;6.25;;;;;;;8.04;56.59;102473.28;5282654;28;20028;-72
2021/04/04 11:11:58;;;;;;;11.98;5.70;;;;;;;8.05;55.94;102474.97;5280164;28;20023;-72
2021/04/04 11:14:31;;;;;;;16.45;6.13;;;;;;;8.25;56.38;102466.16;5282082;28;20028;-73
2021/04/04 11:17:04;;;;;;;13.10;6.25;;;;;;;8.26;55.96;102454.81;5284933;28;20472;-72
2021/04/04 11:19:35;;;;;;;;;;;;;;;8.52;56.13;102467.47;5284566;28;20040;-72
2021/04/04 11:22:07;;;;;;;13.75;6.70;;;;;;;8.20;55.25;102453.34;5282858;28;20317;-73
2021/04/04 11:24:38;;;;;;;16.23;7.13;;;;;;;8.36;55.61;102457.81;5282943;28;20107;-73
2021/04/04 11:27:10;;;;;;;22.95;7.88;;;;;;;8.45;55.40;102460.84;5282232;28;20024;-73
2021/04/04 11:29:47;;;;;;;14.25;7.53;;;;;;;8.36;54.88;102458.66;5282047;28;20142;-73
2021/04/04 11:32:18;;;;;;;17.17;7.53;;;;;;;8.22;55.54;102461.09;5290340;28;20078;-74
2021/04/04 11:35:03;;;;;;;13.95;6.47;;;;;;;8.32;55.82;102453.66;5290085;28;20048;-73
2021/04/04 11:37:37;;;;;;;17.42;7.93;;;;;;;8.23;56.13;102450.59;5287587;28;20026;-73
2021/04/04 11:40:16;;;;;;;12.50;7.55;;;;;;;8.21;57.18;102451.56;5265914;28;20034;-74
2021/04/04 11:43:11;;;;;;;18.27;7.13;;;;;;;8.17;57.28;102444.81;5281670;28;20059;-74
2021/04/04 11:45:44;;;;;;;15.52;7.78;;;;;;;8.21;57.35;102439.34;5279639;28;20032;-74
2021/04/04 11:48:39;;;;;;;15.60;7.05;;;;;;;8.32;57.30;102433.59;5285892;28;20515;-74
2021/04/04 11:51:10;;;;;;;14.52;7.45;;;;;;;8.19;56.73;102433.38;5265823;28;20032;-74
2021/04/04 11:53:43;;;;;;;13.50;7.70;;;;;;;8.13;57.15;102415.41;5266984;28;20024;-74
2021/04/04 11:56:39;;;;;;;14.35;7.07;;;;;;;8.41;56.70;102430.59;5275618;28;20285;-74
2021/04/04 11:59:12;;;;;;;10.40;5.57;;;;;;;8.41;56.22;102425.38;5286719;28;20028;-74
2021/04/04 12:01:43;;;;;;;13.18;5.72;;;;;;;8.42;55.21;102420.97;5282208;28;20043;-74
2021/04/04 12:04:29;;;;;;;10.05;5.50;;;;;;;8.59;56.30;102422.72;5286836;28;20102;-74
2021/04/04 12:07:10;;;;;;;8.13;5.22;;;;;;;8.44;54.67;102414.72;5280275;28;20253;-74
2021/04/04 12:09:44;;;;;;;12.60;5.53;;;;;;;8.50;54.94;102416.22;5284971;28;20111;-74
2021/04/04 12:12:16;;;;;;;9.48;5.85;;;;;;;8.60;54.73;102413.94;5285101;28;20040;-74
2021/04/04 12:14:53;;;;;;;9.05;4.72;;;;;;;8.72;54.43;102405.50;5289646;28;20368;-74